Mobile, AL

6:47 AM CST on December 09, 2016 (GMT -0600)
Downtown Waterfront | | Change Station

Elev 13 ft 30.69 °N, 88.04 °W | Updated 16 seconds ago

Clear
Clear
35.0 °F
Feels Like 25 °F
N
17.0
Wind Variable Wind from North
Gusts 22.0 mph

Today
High -- | Low -- °F
--% Chance of Precip.
Yesterday
High -- | Low -- °F
Precip. -- in
Pressure 30.51 in
Visibility 10.0 miles
Clouds Clear
Windchill 25 °F
Dew Point 27 °F
Humidity 72%
Rainfall 0.00 in
Snow Depth Not available.
6:38 AM 4:51 PM
Waxing Gibbous, 73% visible
METAR KBFM 091153Z AUTO 35012KT 10SM CLR 03/M04 A3051 RMK AO2 SLP329 T00281044 10061 20028 53013
Pressure 30.51 in
Visibility 10.0 miles
Clouds Clear
Windchill 25 °F
Dew Point 27 °F
Humidity 72%
Rainfall 0.00 in
Snow Depth Not available.
6:38 AM 4:51 PM
Waxing Gibbous, 73% visible
METAR KBFM 091153Z AUTO 35012KT 10SM CLR 03/M04 A3051 RMK AO2 SLP329 T00281044 10061 20028 53013

10-Day Weather Forecast

Almanac

Astronomy

Dec. 09, 2016 Rise Set
Actual Time
Civil Twilight
Nautical Twilight
Astronomical Twilight
Moon
Length of Visible Light
Length of Day
Tomorrow will be .
, % of the Moon is Illuminated

Today's Extremes

State Highs State Lows

Community

WunderPhotos

Upload Photos

1,956,407 photos uploaded!

WunderBlog® & News

Nearby

Air Quality

  Air Quality AQ Index Pollutant
Not available.

Snow Depth

Station Depth Elevation

Earthquake Activity

City Distance Mag. Time & Date
Minimum magnitude displayed is 2.5.

Coastal Water Temperatures

Place Temperature

Stations

Nearby Weather Stations

Station Location Temp. Windchill Dew Point Humidity Wind Precip. Elev Updated Type
                   

Watches & Warnings

There are currently no watches in effect.